METAR Data
IDs: Format: Raw Decoded Include TAF

Data at: 1257 UTC 07 Jul 2020

METAR for:EKRN (Ronne/Bornholm Arpt, --, DN)
Text:EKRN 071250Z AUTO 25018KT 9999 FEW027/// BKN062/// 16/11 Q1014
Temperature: 16.0°C ( 61°F)
Dewpoint: 11.0°C ( 52°F) [RH = 72%]
Pressure (altimeter):29.94 inches Hg (1014.0 mb)
Winds:from the WSW (250 degrees) at 21 MPH (18 knots; 9.3 m/s)
Visibility:6 or more sm (10+ km)
Ceiling:6200 feet AGL
Clouds: few clouds at 2700 feet AGL, broken clouds at 6200 feet AGL
Text:EKRN 071220Z AUTO 25019KT 9999 FEW027/// 17/11 Q1014
Temperature: 17.0°C ( 63°F)
Dewpoint: 11.0°C ( 52°F) [RH = 68%]
Pressure (altimeter):29.94 inches Hg (1014.0 mb)
Winds:from the WSW (250 degrees) at 22 MPH (19 knots; 9.8 m/s)
Visibility:6 or more sm (10+ km)
Ceiling:at least 12,000 feet AGL
Clouds: few clouds at 2700 feet AGL
Text:EKRN 071150Z AUTO 26017KT 9999 FEW026/// 18/11 Q1014
Temperature: 18.0°C ( 64°F)
Dewpoint: 11.0°C ( 52°F) [RH = 64%]
Pressure (altimeter):29.94 inches Hg (1014.0 mb)
Winds:from the W (260 degrees) at 20 MPH (17 knots; 8.7 m/s)
Visibility:6 or more sm (10+ km)
Ceiling:at least 12,000 feet AGL
Clouds: few clouds at 2600 feet AGL
Text:EKRN 071120Z AUTO 26019KT 9999 FEW023/// 17/10 Q1014
Temperature: 17.0°C ( 63°F)
Dewpoint: 10.0°C ( 50°F) [RH = 63%]
Pressure (altimeter):29.94 inches Hg (1014.0 mb)
Winds:from the W (260 degrees) at 22 MPH (19 knots; 9.8 m/s)
Visibility:6 or more sm (10+ km)
Ceiling:at least 12,000 feet AGL
Clouds: few clouds at 2300 feet AGL
Text:EKRN 071050Z AUTO 26019KT 9999 SCT023/// 17/10 Q1014
Temperature: 17.0°C ( 63°F)
Dewpoint: 10.0°C ( 50°F) [RH = 63%]
Pressure (altimeter):29.94 inches Hg (1014.0 mb)
Winds:from the W (260 degrees) at 22 MPH (19 knots; 9.8 m/s)
Visibility:6 or more sm (10+ km)
Ceiling:at least 12,000 feet AGL
Clouds: scattered clouds at 2300 feet AGL
Text:EKRN 071020Z AUTO 27021KT 9999 SCT022/// 17/11 Q1014
Temperature: 17.0°C ( 63°F)
Dewpoint: 11.0°C ( 52°F) [RH = 68%]
Pressure (altimeter):29.94 inches Hg (1014.0 mb)
Winds:from the W (270 degrees) at 24 MPH (21 knots; 10.8 m/s)
Visibility:6 or more sm (10+ km)
Ceiling:at least 12,000 feet AGL
Clouds: scattered clouds at 2200 feet AGL
Text:EKRN 070950Z AUTO 27020KT 9999 BKN022/// 16/10 Q1014
Temperature: 16.0°C ( 61°F)
Dewpoint: 10.0°C ( 50°F) [RH = 68%]
Pressure (altimeter):29.94 inches Hg (1014.0 mb)
Winds:from the W (270 degrees) at 23 MPH (20 knots; 10.3 m/s)
Visibility:6 or more sm (10+ km)
Ceiling:2200 feet AGL
Clouds: broken clouds at 2200 feet AGL
Text:EKRN 070920Z AUTO 27020KT 9999 BKN023/// 16/10 Q1014
Temperature: 16.0°C ( 61°F)
Dewpoint: 10.0°C ( 50°F) [RH = 68%]
Pressure (altimeter):29.94 inches Hg (1014.0 mb)
Winds:from the W (270 degrees) at 23 MPH (20 knots; 10.3 m/s)
Visibility:6 or more sm (10+ km)
Ceiling:2300 feet AGL
Clouds: broken clouds at 2300 feet AGL
Text:EKRN 070850Z AUTO 28020KT 9999 BKN023/// 16/10 Q1014
Temperature: 16.0°C ( 61°F)
Dewpoint: 10.0°C ( 50°F) [RH = 68%]
Pressure (altimeter):29.94 inches Hg (1014.0 mb)
Winds:from the W (280 degrees) at 23 MPH (20 knots; 10.3 m/s)
Visibility:6 or more sm (10+ km)
Ceiling:2300 feet AGL
Clouds: broken clouds at 2300 feet AGL
Text:EKRN 070820Z AUTO 28018KT 9999 BKN023/// 15/10 Q1013
Temperature: 15.0°C ( 59°F)
Dewpoint: 10.0°C ( 50°F) [RH = 72%]
Pressure (altimeter):29.91 inches Hg (1013.0 mb)
Winds:from the W (280 degrees) at 21 MPH (18 knots; 9.3 m/s)
Visibility:6 or more sm (10+ km)
Ceiling:2300 feet AGL
Clouds: broken clouds at 2300 feet AGL
Text:EKRN 070750Z AUTO 28019G31KT 9999 FEW022/// 15/10 Q1013
Temperature: 15.0°C ( 59°F)
Dewpoint: 10.0°C ( 50°F) [RH = 72%]
Pressure (altimeter):29.91 inches Hg (1013.0 mb)
Winds:from the W (280 degrees) at 22 MPH (19 knots; 9.8 m/s) gusting to 36 MPH (31 knots; 15.9 m/s)
Visibility:6 or more sm (10+ km)
Ceiling:at least 12,000 feet AGL
Clouds: few clouds at 2200 feet AGL
Text:EKRN 070720Z AUTO 28021KT 9999 SCT021/// BKN024/// BKN042/// 15/10 Q1013
Temperature: 15.0°C ( 59°F)
Dewpoint: 10.0°C ( 50°F) [RH = 72%]
Pressure (altimeter):29.91 inches Hg (1013.0 mb)
Winds:from the W (280 degrees) at 24 MPH (21 knots; 10.8 m/s)
Visibility:6 or more sm (10+ km)
Ceiling:2400 feet AGL
Clouds: scattered clouds at 2100 feet AGL, broken clouds at 2400 feet AGL, broken clouds at 4200 feet AGL
Text:EKRN 070650Z AUTO 28020KT 9999 BKN025/// 15/10 Q1013
Temperature: 15.0°C ( 59°F)
Dewpoint: 10.0°C ( 50°F) [RH = 72%]
Pressure (altimeter):29.91 inches Hg (1013.0 mb)
Winds:from the W (280 degrees) at 23 MPH (20 knots; 10.3 m/s)
Visibility:6 or more sm (10+ km)
Ceiling:2500 feet AGL
Clouds: broken clouds at 2500 feet AGL
Text:EKRN 070620Z AUTO 28018KT 9999 BKN026/// BKN051/// 14/09 Q1012
Temperature: 14.0°C ( 57°F)
Dewpoint: 9.0°C ( 48°F) [RH = 72%]
Pressure (altimeter):29.88 inches Hg (1012.0 mb)
Winds:from the W (280 degrees) at 21 MPH (18 knots; 9.3 m/s)
Visibility:6 or more sm (10+ km)
Ceiling:2600 feet AGL
Clouds: broken clouds at 2600 feet AGL, broken clouds at 5100 feet AGL
Text:EKRN 070550Z AUTO 29019KT 9999 SCT027/// BKN048/// 14/08 Q1012
Temperature: 14.0°C ( 57°F)
Dewpoint: 8.0°C ( 46°F) [RH = 67%]
Pressure (altimeter):29.88 inches Hg (1012.0 mb)
Winds:from the WNW (290 degrees) at 22 MPH (19 knots; 9.8 m/s)
Visibility:6 or more sm (10+ km)
Ceiling:4800 feet AGL
Clouds: scattered clouds at 2700 feet AGL, broken clouds at 4800 feet AGL
Text:EKRN 070520Z AUTO 28017G27KT 9999 FEW027/// OVC047/// 14/09 Q1012
Temperature: 14.0°C ( 57°F)
Dewpoint: 9.0°C ( 48°F) [RH = 72%]
Pressure (altimeter):29.88 inches Hg (1012.0 mb)
Winds:from the W (280 degrees) at 20 MPH (17 knots; 8.7 m/s) gusting to 31 MPH (27 knots; 13.9 m/s)
Visibility:6 or more sm (10+ km)
Ceiling:4700 feet AGL
Clouds: few clouds at 2700 feet AGL, overcast cloud deck at 4700 feet AGL
Text:EKRN 070450Z AUTO 29017KT 9999 OVC030/// 14/08 Q1012
Temperature: 14.0°C ( 57°F)
Dewpoint: 8.0°C ( 46°F) [RH = 67%]
Pressure (altimeter):29.88 inches Hg (1012.0 mb)
Winds:from the WNW (290 degrees) at 20 MPH (17 knots; 8.7 m/s)
Visibility:6 or more sm (10+ km)
Ceiling:3000 feet AGL
Clouds: overcast cloud deck at 3000 feet AGL
Text:EKRN 070420Z AUTO 28019KT 260V330 9999 OVC042/// 14/08 Q1012
Temperature: 14.0°C ( 57°F)
Dewpoint: 8.0°C ( 46°F) [RH = 67%]
Pressure (altimeter):29.88 inches Hg (1012.0 mb)
Winds:from the W (280 degrees) at 22 MPH (19 knots; 9.8 m/s)
Visibility:6 or more sm (10+ km)
Ceiling:4200 feet AGL
Clouds: overcast cloud deck at 4200 feet AGL
Text:EKRN 070350Z AUTO 29017KT 270V330 9999 BKN032/// 14/08 Q1011
Temperature: 14.0°C ( 57°F)
Dewpoint: 8.0°C ( 46°F) [RH = 67%]
Pressure (altimeter):29.85 inches Hg (1011.0 mb)
Winds:from the WNW (290 degrees) at 20 MPH (17 knots; 8.7 m/s)
Visibility:6 or more sm (10+ km)
Ceiling:3200 feet AGL
Clouds: broken clouds at 3200 feet AGL
Text:EKRN 070320Z AUTO 29019KT 9999 BKN029/// 13/07 Q1011
Temperature: 13.0°C ( 55°F)
Dewpoint: 7.0°C ( 45°F) [RH = 67%]
Pressure (altimeter):29.85 inches Hg (1011.0 mb)
Winds:from the WNW (290 degrees) at 22 MPH (19 knots; 9.8 m/s)
Visibility:6 or more sm (10+ km)
Ceiling:2900 feet AGL
Clouds: broken clouds at 2900 feet AGL
Text:EKRN 070250Z AUTO 29018G28KT 9999 BKN029/// 14/08 Q1011
Temperature: 14.0°C ( 57°F)
Dewpoint: 8.0°C ( 46°F) [RH = 67%]
Pressure (altimeter):29.85 inches Hg (1011.0 mb)
Winds:from the WNW (290 degrees) at 21 MPH (18 knots; 9.3 m/s) gusting to 32 MPH (28 knots; 14.4 m/s)
Visibility:6 or more sm (10+ km)
Ceiling:2900 feet AGL
Clouds: broken clouds at 2900 feet AGL
Text:EKRN 070220Z AUTO 28022KT 9999 BKN026/// 14/09 Q1011
Temperature: 14.0°C ( 57°F)
Dewpoint: 9.0°C ( 48°F) [RH = 72%]
Pressure (altimeter):29.85 inches Hg (1011.0 mb)
Winds:from the W (280 degrees) at 25 MPH (22 knots; 11.3 m/s)
Visibility:6 or more sm (10+ km)
Ceiling:2600 feet AGL
Clouds: broken clouds at 2600 feet AGL
Text:EKRN 070150Z AUTO 28022KT 9999 BKN024/// 14/10 Q1010
Temperature: 14.0°C ( 57°F)
Dewpoint: 10.0°C ( 50°F) [RH = 77%]
Pressure (altimeter):29.82 inches Hg (1010.0 mb)
Winds:from the W (280 degrees) at 25 MPH (22 knots; 11.3 m/s)
Visibility:6 or more sm (10+ km)
Ceiling:2400 feet AGL
Clouds: broken clouds at 2400 feet AGL
Text:EKRN 070120Z AUTO 28023KT 9999 BKN024/// 14/09 Q1010
Temperature: 14.0°C ( 57°F)
Dewpoint: 9.0°C ( 48°F) [RH = 72%]
Pressure (altimeter):29.82 inches Hg (1010.0 mb)
Winds:from the W (280 degrees) at 26 MPH (23 knots; 11.8 m/s)
Visibility:6 or more sm (10+ km)
Ceiling:2400 feet AGL
Clouds: broken clouds at 2400 feet AGL
Text:EKRN 070050Z AUTO 28022KT 9999 BKN026/// 14/09 Q1010
Temperature: 14.0°C ( 57°F)
Dewpoint: 9.0°C ( 48°F) [RH = 72%]
Pressure (altimeter):29.82 inches Hg (1010.0 mb)
Winds:from the W (280 degrees) at 25 MPH (22 knots; 11.3 m/s)
Visibility:6 or more sm (10+ km)
Ceiling:2600 feet AGL
Clouds: broken clouds at 2600 feet AGL
Text:EKRN 070020Z AUTO 28023G33KT 9999 BKN025/// BKN052/// 14/10 Q1010
Temperature: 14.0°C ( 57°F)
Dewpoint: 10.0°C ( 50°F) [RH = 77%]
Pressure (altimeter):29.82 inches Hg (1010.0 mb)
Winds:from the W (280 degrees) at 26 MPH (23 knots; 11.8 m/s) gusting to 38 MPH (33 knots; 17.0 m/s)
Visibility:6 or more sm (10+ km)
Ceiling:2500 feet AGL
Clouds: broken clouds at 2500 feet AGL, broken clouds at 5200 feet AGL
Text:EKRN 062350Z AUTO 27025KT 9999 BKN026/// 14/10 Q1010
Temperature: 14.0°C ( 57°F)
Dewpoint: 10.0°C ( 50°F) [RH = 77%]
Pressure (altimeter):29.82 inches Hg (1010.0 mb)
Winds:from the W (270 degrees) at 29 MPH (25 knots; 12.9 m/s)
Visibility:6 or more sm (10+ km)
Ceiling:2600 feet AGL
Clouds: broken clouds at 2600 feet AGL
Text:EKRN 062320Z AUTO 27023KT 9999 BKN030/// 15/10 Q1009
Temperature: 15.0°C ( 59°F)
Dewpoint: 10.0°C ( 50°F) [RH = 72%]
Pressure (altimeter):29.79 inches Hg (1009.0 mb)
Winds:from the W (270 degrees) at 26 MPH (23 knots; 11.8 m/s)
Visibility:6 or more sm (10+ km)
Ceiling:3000 feet AGL
Clouds: broken clouds at 3000 feet AGL
Text:EKRN 062250Z AUTO 28023KT 9999 SCT031/// BKN045/// 15/09 Q1009
Temperature: 15.0°C ( 59°F)
Dewpoint: 9.0°C ( 48°F) [RH = 67%]
Pressure (altimeter):29.79 inches Hg (1009.0 mb)
Winds:from the W (280 degrees) at 26 MPH (23 knots; 11.8 m/s)
Visibility:6 or more sm (10+ km)
Ceiling:4500 feet AGL
Clouds: scattered clouds at 3100 feet AGL, broken clouds at 4500 feet AGL
Text:EKRN 062220Z AUTO 27027KT 9999 BKN033/// 15/09 Q1009
Temperature: 15.0°C ( 59°F)
Dewpoint: 9.0°C ( 48°F) [RH = 67%]
Pressure (altimeter):29.79 inches Hg (1009.0 mb)
Winds:from the W (270 degrees) at 31 MPH (27 knots; 13.9 m/s)
Visibility:6 or more sm (10+ km)
Ceiling:3300 feet AGL
Clouds: broken clouds at 3300 feet AGL
Text:EKRN 062150Z AUTO 27025KT 9999 FEW027/// BKN051/// 15/09 Q1009
Temperature: 15.0°C ( 59°F)
Dewpoint: 9.0°C ( 48°F) [RH = 67%]
Pressure (altimeter):29.79 inches Hg (1009.0 mb)
Winds:from the W (270 degrees) at 29 MPH (25 knots; 12.9 m/s)
Visibility:6 or more sm (10+ km)
Ceiling:5100 feet AGL
Clouds: few clouds at 2700 feet AGL, broken clouds at 5100 feet AGL
Text:EKRN 062120Z AUTO 27025KT 9999 SCT049/// 15/09 Q1008
Temperature: 15.0°C ( 59°F)
Dewpoint: 9.0°C ( 48°F) [RH = 67%]
Pressure (altimeter):29.76 inches Hg (1008.0 mb)
Winds:from the W (270 degrees) at 29 MPH (25 knots; 12.9 m/s)
Visibility:6 or more sm (10+ km)
Ceiling:at least 12,000 feet AGL
Clouds: scattered clouds at 4900 feet AGL
Text:EKRN 062050Z AUTO 27025KT 9999 BKN026/// 15/11 Q1008
Temperature: 15.0°C ( 59°F)
Dewpoint: 11.0°C ( 52°F) [RH = 77%]
Pressure (altimeter):29.76 inches Hg (1008.0 mb)
Winds:from the W (270 degrees) at 29 MPH (25 knots; 12.9 m/s)
Visibility:6 or more sm (10+ km)
Ceiling:2600 feet AGL
Clouds: broken clouds at 2600 feet AGL
Text:EKRN 062020Z AUTO 27023KT 9999 BKN024/// BKN071/// 15/11 Q1008
Temperature: 15.0°C ( 59°F)
Dewpoint: 11.0°C ( 52°F) [RH = 77%]
Pressure (altimeter):29.76 inches Hg (1008.0 mb)
Winds:from the W (270 degrees) at 26 MPH (23 knots; 11.8 m/s)
Visibility:6 or more sm (10+ km)
Ceiling:2400 feet AGL
Clouds: broken clouds at 2400 feet AGL, broken clouds at 7100 feet AGL
Text:EKRN 061950Z AUTO 27022G32KT 9999 SCT020/// SCT036/// BKN066/// 15/12 Q1007
Temperature: 15.0°C ( 59°F)
Dewpoint: 12.0°C ( 54°F) [RH = 82%]
Pressure (altimeter):29.73 inches Hg (1007.0 mb)
Winds:from the W (270 degrees) at 25 MPH (22 knots; 11.3 m/s) gusting to 37 MPH (32 knots; 16.5 m/s)
Visibility:6 or more sm (10+ km)
Ceiling:6600 feet AGL
Clouds: scattered clouds at 2000 feet AGL, scattered clouds at 3600 feet AGL, broken clouds at 6600 feet AGL
Text:EKRN 061920Z AUTO 26021KT 9999 SCT057/// 15/12 Q1007
Temperature: 15.0°C ( 59°F)
Dewpoint: 12.0°C ( 54°F) [RH = 82%]
Pressure (altimeter):29.73 inches Hg (1007.0 mb)
Winds:from the W (260 degrees) at 24 MPH (21 knots; 10.8 m/s)
Visibility:6 or more sm (10+ km)
Ceiling:at least 12,000 feet AGL
Clouds: scattered clouds at 5700 feet AGL
Text:EKRN 061850Z AUTO 27025KT 9999 FEW027/// FEW056/// SCT130/// BKN170/// 16/11 Q1007
Temperature: 16.0°C ( 61°F)
Dewpoint: 11.0°C ( 52°F) [RH = 72%]
Pressure (altimeter):29.73 inches Hg (1007.0 mb)
Winds:from the W (270 degrees) at 29 MPH (25 knots; 12.9 m/s)
Visibility:6 or more sm (10+ km)
Ceiling:17000 feet AGL
Clouds: few clouds at 2700 feet AGL, few clouds at 5600 feet AGL, scattered clouds at 13000 feet AGL, broken clouds at 17000 feet AGL
Text:EKRN 061820Z AUTO 26025G38KT 9999 FEW025/// 16/11 Q1007
Temperature: 16.0°C ( 61°F)
Dewpoint: 11.0°C ( 52°F) [RH = 72%]
Pressure (altimeter):29.73 inches Hg (1007.0 mb)
Winds:from the W (260 degrees) at 29 MPH (25 knots; 12.9 m/s) gusting to 44 MPH (38 knots; 19.5 m/s)
Visibility:6 or more sm (10+ km)
Ceiling:at least 12,000 feet AGL
Clouds: few clouds at 2500 feet AGL
Text:EKRN 061750Z AUTO 25022KT 9999 NCD 16/12 Q1006
Temperature: 16.0°C ( 61°F)
Dewpoint: 12.0°C ( 54°F) [RH = 77%]
Pressure (altimeter):29.70 inches Hg (1006.0 mb)
Winds:from the WSW (250 degrees) at 25 MPH (22 knots; 11.3 m/s)
Visibility:6 or more sm (10+ km)
Ceiling:at least 12,000 feet AGL
Clouds:sky clear below 12,000 feet AGL
Text:EKRN 061720Z AUTO 25026G36KT 9999 SCT027/// 17/12 Q1006
Temperature: 17.0°C ( 63°F)
Dewpoint: 12.0°C ( 54°F) [RH = 72%]
Pressure (altimeter):29.70 inches Hg (1006.0 mb)
Winds:from the WSW (250 degrees) at 30 MPH (26 knots; 13.4 m/s) gusting to 41 MPH (36 knots; 18.5 m/s)
Visibility:6 or more sm (10+ km)
Ceiling:at least 12,000 feet AGL
Clouds: scattered clouds at 2700 feet AGL
Text:EKRN 061650Z AUTO 25024KT 9999 NCD 17/12 Q1006
Temperature: 17.0°C ( 63°F)
Dewpoint: 12.0°C ( 54°F) [RH = 72%]
Pressure (altimeter):29.70 inches Hg (1006.0 mb)
Winds:from the WSW (250 degrees) at 28 MPH (24 knots; 12.3 m/s)
Visibility:6 or more sm (10+ km)
Ceiling:at least 12,000 feet AGL
Clouds:sky clear below 12,000 feet AGL
Text:EKRN 061620Z AUTO 25024KT 9999 NCD 17/11 Q1006
Temperature: 17.0°C ( 63°F)
Dewpoint: 11.0°C ( 52°F) [RH = 68%]
Pressure (altimeter):29.70 inches Hg (1006.0 mb)
Winds:from the WSW (250 degrees) at 28 MPH (24 knots; 12.3 m/s)
Visibility:6 or more sm (10+ km)
Ceiling:at least 12,000 feet AGL
Clouds:sky clear below 12,000 feet AGL
Text:EKRN 061550Z AUTO 25022KT 9999 NCD 17/12 Q1005
Temperature: 17.0°C ( 63°F)
Dewpoint: 12.0°C ( 54°F) [RH = 72%]
Pressure (altimeter):29.68 inches Hg (1005.0 mb)
Winds:from the WSW (250 degrees) at 25 MPH (22 knots; 11.3 m/s)
Visibility:6 or more sm (10+ km)
Ceiling:at least 12,000 feet AGL
Clouds:sky clear below 12,000 feet AGL
Text:EKRN 061520Z AUTO 24019KT 9999 FEW023/// 17/13 Q1005
Temperature: 17.0°C ( 63°F)
Dewpoint: 13.0°C ( 55°F) [RH = 77%]
Pressure (altimeter):29.68 inches Hg (1005.0 mb)
Winds:from the WSW (240 degrees) at 22 MPH (19 knots; 9.8 m/s)
Visibility:6 or more sm (10+ km)
Ceiling:at least 12,000 feet AGL
Clouds: few clouds at 2300 feet AGL
Text:EKRN 061450Z AUTO 24021KT 9999 FEW022/// SCT026/// 17/12 Q1005
Temperature: 17.0°C ( 63°F)
Dewpoint: 12.0°C ( 54°F) [RH = 72%]
Pressure (altimeter):29.68 inches Hg (1005.0 mb)
Winds:from the WSW (240 degrees) at 24 MPH (21 knots; 10.8 m/s)
Visibility:6 or more sm (10+ km)
Ceiling:at least 12,000 feet AGL
Clouds: few clouds at 2200 feet AGL, scattered clouds at 2600 feet AGL
Text:EKRN 061420Z AUTO 25023KT 9999 FEW024/// 17/12 Q1005
Temperature: 17.0°C ( 63°F)
Dewpoint: 12.0°C ( 54°F) [RH = 72%]
Pressure (altimeter):29.68 inches Hg (1005.0 mb)
Winds:from the WSW (250 degrees) at 26 MPH (23 knots; 11.8 m/s)
Visibility:6 or more sm (10+ km)
Ceiling:at least 12,000 feet AGL
Clouds: few clouds at 2400 feet AGL
Text:EKRN 061350Z AUTO 25027KT 9999 FEW022/// 17/12 Q1005
Temperature: 17.0°C ( 63°F)
Dewpoint: 12.0°C ( 54°F) [RH = 72%]
Pressure (altimeter):29.68 inches Hg (1005.0 mb)
Winds:from the WSW (250 degrees) at 31 MPH (27 knots; 13.9 m/s)
Visibility:6 or more sm (10+ km)
Ceiling:at least 12,000 feet AGL
Clouds: few clouds at 2200 feet AGL
Text:EKRN 061320Z AUTO 24023KT 9999 FEW024/// 17/12 Q1004
Temperature: 17.0°C ( 63°F)
Dewpoint: 12.0°C ( 54°F) [RH = 72%]
Pressure (altimeter):29.65 inches Hg (1004.0 mb)
Winds:from the WSW (240 degrees) at 26 MPH (23 knots; 11.8 m/s)
Visibility:6 or more sm (10+ km)
Ceiling:at least 12,000 feet AGL
Clouds: few clouds at 2400 feet AGL
Text:EKRN 061250Z AUTO 24023KT 9999 SCT025/// 17/12 Q1005
Temperature: 17.0°C ( 63°F)
Dewpoint: 12.0°C ( 54°F) [RH = 72%]
Pressure (altimeter):29.68 inches Hg (1005.0 mb)
Winds:from the WSW (240 degrees) at 26 MPH (23 knots; 11.8 m/s)
Visibility:6 or more sm (10+ km)
Ceiling:at least 12,000 feet AGL
Clouds: scattered clouds at 2500 feet AGL
Text:EKRN 061220Z AUTO 25025KT 9999 SCT022/// 17/11 Q1004
Temperature: 17.0°C ( 63°F)
Dewpoint: 11.0°C ( 52°F) [RH = 68%]
Pressure (altimeter):29.65 inches Hg (1004.0 mb)
Winds:from the WSW (250 degrees) at 29 MPH (25 knots; 12.9 m/s)
Visibility:6 or more sm (10+ km)
Ceiling:at least 12,000 feet AGL
Clouds: scattered clouds at 2200 feet AGL
Text:EKRN 061150Z AUTO 24025KT 9999 FEW024/// SCT063/// 17/12 Q1004
Temperature: 17.0°C ( 63°F)
Dewpoint: 12.0°C ( 54°F) [RH = 72%]
Pressure (altimeter):29.65 inches Hg (1004.0 mb)
Winds:from the WSW (240 degrees) at 29 MPH (25 knots; 12.9 m/s)
Visibility:6 or more sm (10+ km)
Ceiling:at least 12,000 feet AGL
Clouds: few clouds at 2400 feet AGL, scattered clouds at 6300 feet AGL
Text:EKRN 061120Z AUTO 25024KT 9999 FEW025/// 17/12 Q1004
Temperature: 17.0°C ( 63°F)
Dewpoint: 12.0°C ( 54°F) [RH = 72%]
Pressure (altimeter):29.65 inches Hg (1004.0 mb)
Winds:from the WSW (250 degrees) at 28 MPH (24 knots; 12.3 m/s)
Visibility:6 or more sm (10+ km)
Ceiling:at least 12,000 feet AGL
Clouds: few clouds at 2500 feet AGL
Text:EKRN 061050Z AUTO 25023KT 9999 BKN026/// 17/12 Q1004
Temperature: 17.0°C ( 63°F)
Dewpoint: 12.0°C ( 54°F) [RH = 72%]
Pressure (altimeter):29.65 inches Hg (1004.0 mb)
Winds:from the WSW (250 degrees) at 26 MPH (23 knots; 11.8 m/s)
Visibility:6 or more sm (10+ km)
Ceiling:2600 feet AGL
Clouds: broken clouds at 2600 feet AGL
Text:EKRN 061020Z AUTO 25020KT 9999 FEW028/// BKN057/// 17/12 Q1004
Temperature: 17.0°C ( 63°F)
Dewpoint: 12.0°C ( 54°F) [RH = 72%]
Pressure (altimeter):29.65 inches Hg (1004.0 mb)
Winds:from the WSW (250 degrees) at 23 MPH (20 knots; 10.3 m/s)
Visibility:6 or more sm (10+ km)
Ceiling:5700 feet AGL
Clouds: few clouds at 2800 feet AGL, broken clouds at 5700 feet AGL
Text:EKRN 060950Z AUTO 24024KT 9999 FEW029/// SCT061/// 17/12 Q1003
Temperature: 17.0°C ( 63°F)
Dewpoint: 12.0°C ( 54°F) [RH = 72%]
Pressure (altimeter):29.62 inches Hg (1003.0 mb)
Winds:from the WSW (240 degrees) at 28 MPH (24 knots; 12.3 m/s)
Visibility:6 or more sm (10+ km)
Ceiling:at least 12,000 feet AGL
Clouds: few clouds at 2900 feet AGL, scattered clouds at 6100 feet AGL
Text:EKRN 060920Z AUTO 24023KT 9999 BKN028/// 17/11 Q1003
Temperature: 17.0°C ( 63°F)
Dewpoint: 11.0°C ( 52°F) [RH = 68%]
Pressure (altimeter):29.62 inches Hg (1003.0 mb)
Winds:from the WSW (240 degrees) at 26 MPH (23 knots; 11.8 m/s)
Visibility:6 or more sm (10+ km)
Ceiling:2800 feet AGL
Clouds: broken clouds at 2800 feet AGL
Text:EKRN 060850Z AUTO 24021KT 9999 SCT028/// SCT081/// 17/12 Q1003
Temperature: 17.0°C ( 63°F)
Dewpoint: 12.0°C ( 54°F) [RH = 72%]
Pressure (altimeter):29.62 inches Hg (1003.0 mb)
Winds:from the WSW (240 degrees) at 24 MPH (21 knots; 10.8 m/s)
Visibility:6 or more sm (10+ km)
Ceiling:at least 12,000 feet AGL
Clouds: scattered clouds at 2800 feet AGL, scattered clouds at 8100 feet AGL
Text:EKRN 060820Z AUTO 25020KT 9999 SCT025/// 17/12 Q1003
Temperature: 17.0°C ( 63°F)
Dewpoint: 12.0°C ( 54°F) [RH = 72%]
Pressure (altimeter):29.62 inches Hg (1003.0 mb)
Winds:from the WSW (250 degrees) at 23 MPH (20 knots; 10.3 m/s)
Visibility:6 or more sm (10+ km)
Ceiling:at least 12,000 feet AGL
Clouds: scattered clouds at 2500 feet AGL
Text:EKRN 060750Z AUTO 25019KT 9999 SCT026/// BKN095/// 16/11 Q1003
Temperature: 16.0°C ( 61°F)
Dewpoint: 11.0°C ( 52°F) [RH = 72%]
Pressure (altimeter):29.62 inches Hg (1003.0 mb)
Winds:from the WSW (250 degrees) at 22 MPH (19 knots; 9.8 m/s)
Visibility:6 or more sm (10+ km)
Ceiling:9500 feet AGL
Clouds: scattered clouds at 2600 feet AGL, broken clouds at 9500 feet AGL
Text:EKRN 060720Z AUTO 25022KT 9999 FEW025/// FEW041/// SCT095/// 16/11 Q1003
Temperature: 16.0°C ( 61°F)
Dewpoint: 11.0°C ( 52°F) [RH = 72%]
Pressure (altimeter):29.62 inches Hg (1003.0 mb)
Winds:from the WSW (250 degrees) at 25 MPH (22 knots; 11.3 m/s)
Visibility:6 or more sm (10+ km)
Ceiling:at least 12,000 feet AGL
Clouds: few clouds at 2500 feet AGL, few clouds at 4100 feet AGL, scattered clouds at 9500 feet AGL
Text:EKRN 060650Z AUTO 25019KT 9999 SCT023/// BKN096/// 16/13 Q1003
Temperature: 16.0°C ( 61°F)
Dewpoint: 13.0°C ( 55°F) [RH = 82%]
Pressure (altimeter):29.62 inches Hg (1003.0 mb)
Winds:from the WSW (250 degrees) at 22 MPH (19 knots; 9.8 m/s)
Visibility:6 or more sm (10+ km)
Ceiling:9600 feet AGL
Clouds: scattered clouds at 2300 feet AGL, broken clouds at 9600 feet AGL
Text:EKRN 060620Z AUTO 23018KT 9999 FEW048/// BKN060/// 16/12 Q1003
Temperature: 16.0°C ( 61°F)
Dewpoint: 12.0°C ( 54°F) [RH = 77%]
Pressure (altimeter):29.62 inches Hg (1003.0 mb)
Winds:from the SW (230 degrees) at 21 MPH (18 knots; 9.3 m/s)
Visibility:6 or more sm (10+ km)
Ceiling:6000 feet AGL
Clouds: few clouds at 4800 feet AGL, broken clouds at 6000 feet AGL
Text:EKRN 060550Z AUTO 24018KT 9999 -SHRA OVC062/// 16/11 Q1003
Temperature: 16.0°C ( 61°F)
Dewpoint: 11.0°C ( 52°F) [RH = 72%]
Pressure (altimeter):29.62 inches Hg (1003.0 mb)
Winds:from the WSW (240 degrees) at 21 MPH (18 knots; 9.3 m/s)
Visibility:6 or more sm (10+ km)
Ceiling:6200 feet AGL
Clouds: overcast cloud deck at 6200 feet AGL
Weather:-SHRA (light rain showers)
Text:EKRN 060520Z AUTO 23017KT 9999 SCT085/// BKN100/// BKN120/// 16/11 Q1003
Temperature: 16.0°C ( 61°F)
Dewpoint: 11.0°C ( 52°F) [RH = 72%]
Pressure (altimeter):29.62 inches Hg (1003.0 mb)
Winds:from the SW (230 degrees) at 20 MPH (17 knots; 8.7 m/s)
Visibility:6 or more sm (10+ km)
Ceiling:10000 feet AGL
Clouds: scattered clouds at 8500 feet AGL, broken clouds at 10000 feet AGL, broken clouds at 12000 feet AGL
Text:EKRN 060450Z AUTO 22016KT 9999 OVC099/// 16/12 Q1003
Temperature: 16.0°C ( 61°F)
Dewpoint: 12.0°C ( 54°F) [RH = 77%]
Pressure (altimeter):29.62 inches Hg (1003.0 mb)
Winds:from the SW (220 degrees) at 18 MPH (16 knots; 8.2 m/s)
Visibility:6 or more sm (10+ km)
Ceiling:9900 feet AGL
Clouds: overcast cloud deck at 9900 feet AGL
Text:EKRN 060420Z AUTO 24018KT 9999 OVC100/// 16/12 Q1003
Temperature: 16.0°C ( 61°F)
Dewpoint: 12.0°C ( 54°F) [RH = 77%]
Pressure (altimeter):29.62 inches Hg (1003.0 mb)
Winds:from the WSW (240 degrees) at 21 MPH (18 knots; 9.3 m/s)
Visibility:6 or more sm (10+ km)
Ceiling:10000 feet AGL
Clouds: overcast cloud deck at 10000 feet AGL
Text:EKRN 060350Z AUTO 23018KT 9999 FEW027/// BKN097/// 16/12 Q1003
Temperature: 16.0°C ( 61°F)
Dewpoint: 12.0°C ( 54°F) [RH = 77%]
Pressure (altimeter):29.62 inches Hg (1003.0 mb)
Winds:from the SW (230 degrees) at 21 MPH (18 knots; 9.3 m/s)
Visibility:6 or more sm (10+ km)
Ceiling:9700 feet AGL
Clouds: few clouds at 2700 feet AGL, broken clouds at 9700 feet AGL
Text:EKRN 060320Z AUTO 24017KT 9999 FEW026/// SCT094/// BKN110/// 16/12 Q1003
Temperature: 16.0°C ( 61°F)
Dewpoint: 12.0°C ( 54°F) [RH = 77%]
Pressure (altimeter):29.62 inches Hg (1003.0 mb)
Winds:from the WSW (240 degrees) at 20 MPH (17 knots; 8.7 m/s)
Visibility:6 or more sm (10+ km)
Ceiling:11000 feet AGL
Clouds: few clouds at 2600 feet AGL, scattered clouds at 9400 feet AGL, broken clouds at 11000 feet AGL
Text:EKRN 060250Z AUTO 24016KT 9999 FEW025/// 16/12 Q1003
Temperature: 16.0°C ( 61°F)
Dewpoint: 12.0°C ( 54°F) [RH = 77%]
Pressure (altimeter):29.62 inches Hg (1003.0 mb)
Winds:from the WSW (240 degrees) at 18 MPH (16 knots; 8.2 m/s)
Visibility:6 or more sm (10+ km)
Ceiling:at least 12,000 feet AGL
Clouds: few clouds at 2500 feet AGL
Text:EKRN 060220Z AUTO 24018KT 9999 FEW025/// BKN087/// 16/12 Q1003
Temperature: 16.0°C ( 61°F)
Dewpoint: 12.0°C ( 54°F) [RH = 77%]
Pressure (altimeter):29.62 inches Hg (1003.0 mb)
Winds:from the WSW (240 degrees) at 21 MPH (18 knots; 9.3 m/s)
Visibility:6 or more sm (10+ km)
Ceiling:8700 feet AGL
Clouds: few clouds at 2500 feet AGL, broken clouds at 8700 feet AGL
Text:EKRN 060150Z AUTO 25016KT 9999 BKN082/// 16/11 Q1003
Temperature: 16.0°C ( 61°F)
Dewpoint: 11.0°C ( 52°F) [RH = 72%]
Pressure (altimeter):29.62 inches Hg (1003.0 mb)
Winds:from the WSW (250 degrees) at 18 MPH (16 knots; 8.2 m/s)
Visibility:6 or more sm (10+ km)
Ceiling:8200 feet AGL
Clouds: broken clouds at 8200 feet AGL
Text:EKRN 060120Z AUTO 25021KT 9999 FEW085/// 16/11 Q1004
Temperature: 16.0°C ( 61°F)
Dewpoint: 11.0°C ( 52°F) [RH = 72%]
Pressure (altimeter):29.65 inches Hg (1004.0 mb)
Winds:from the WSW (250 degrees) at 24 MPH (21 knots; 10.8 m/s)
Visibility:6 or more sm (10+ km)
Ceiling:at least 12,000 feet AGL
Clouds: few clouds at 8500 feet AGL

TAF for:EKRN (Ronne/Bornholm Arpt, --, DN) issued at 1123 UTC 07 Jul 2020
Text:TAF EKRN 071123Z 0712/0720 27018KT 9999 SCT030
Forecast period:1200 to 2000 UTC 07 July 2020
Forecast type:FROM: standard forecast or significant change
Winds:from the W (270 degrees) at 21 MPH (18 knots; 9.3 m/s)
Visibility:6 or more sm (10+ km)
Ceiling:at least 12,000 feet AGL
Clouds: scattered clouds at 3000 feet AGL
Text:TEMPO 0712/0718 26020G30KT SCT020TCU
Forecast period:1200 to 1800 UTC 07 July 2020
Forecast type:TEMPORARY: The following changes expected for less than half the time period
Winds:from the W (260 degrees) at 23 MPH (20 knots; 10.3 m/s) gusting to 34 MPH (30 knots; 15.4 m/s)
Ceiling:at least 12,000 feet AGL
Clouds: scattered clouds at 2000 feet AGL
Text:TEMPO 0718/0720 24018G28KT 4000 SHRA SCT012 BKN020CB
Forecast period:1800 to 2000 UTC 07 July 2020
Forecast type:TEMPORARY: The following changes expected for less than half the time period
Winds:from the WSW (240 degrees) at 21 MPH (18 knots; 9.3 m/s) gusting to 32 MPH (28 knots; 14.4 m/s)
Visibility: 2.49 sm ( 4.01 km)
Ceiling:2000 feet AGL
Clouds: scattered clouds at 1200 feet AGL, broken clouds at 2000 feet AGL
Weather:SHRA (rain showers)